createdAt,value
2022-12-19T00:00:29.318Z,-8.60
2022-12-19T00:03:16.949Z,-8.75
2022-12-19T00:05:44.264Z,-8.70
2022-12-19T00:08:17.826Z,-8.69
2022-12-19T00:10:55.601Z,-8.91
2022-12-19T00:13:23.616Z,-8.87
2022-12-19T00:15:51.054Z,-8.63
2022-12-19T00:18:19.047Z,-8.57
2022-12-19T00:20:55.204Z,-8.82
2022-12-19T00:23:22.747Z,-8.86
2022-12-19T00:25:49.967Z,-8.91
2022-12-19T00:28:18.056Z,-8.94
2022-12-19T00:30:47.397Z,-8.92
2022-12-19T00:33:15.969Z,-8.79
2022-12-19T00:35:43.227Z,-8.79
2022-12-19T00:38:11.443Z,-8.69
2022-12-19T00:40:39.673Z,-8.77
2022-12-19T00:43:08.005Z,-8.73
2022-12-19T00:45:38.544Z,-8.82
2022-12-19T00:48:06.208Z,-8.89
2022-12-19T00:50:34.417Z,-8.99
2022-12-19T00:53:02.052Z,-8.93
2022-12-19T00:55:47.775Z,-9.01
2022-12-19T00:58:15.323Z,-8.90
2022-12-19T01:00:42.584Z,-8.95
2022-12-19T01:03:10.948Z,-9.01
2022-12-19T01:05:38.335Z,-8.94
2022-12-19T01:08:09.774Z,-9.06
2022-12-19T01:10:38.311Z,-9.11
2022-12-19T01:13:07.648Z,-9.05
2022-12-19T01:15:34.983Z,-8.87
2022-12-19T01:18:04.929Z,-9.13
2022-12-19T01:20:32.129Z,-9.02
2022-12-19T01:23:00.106Z,-8.80
2022-12-19T01:25:28.432Z,-8.77
2022-12-19T01:27:57.293Z,-8.82
2022-12-19T01:30:24.990Z,-9.03
2022-12-19T01:32:53.613Z,-9.12
2022-12-19T01:35:22.040Z,-9.06
2022-12-19T01:37:58.766Z,-9.06
2022-12-19T01:40:35.753Z,-9.21
2022-12-19T01:43:04.122Z,-9.13
2022-12-19T01:45:35.025Z,-8.92
2022-12-19T01:48:23.718Z,-8.86
2022-12-19T01:51:01.754Z,-8.83
2022-12-19T01:53:36.266Z,-8.78
2022-12-19T01:56:13.145Z,-8.71
2022-12-19T01:58:47.779Z,-9.19
2022-12-19T02:01:18.348Z,-8.79
2022-12-19T02:03:47.291Z,-8.91
2022-12-19T02:06:16.688Z,-8.75
2022-12-19T02:08:49.011Z,-8.79
2022-12-19T02:11:16.176Z,-8.53
2022-12-19T02:13:45.863Z,-8.91
2022-12-19T02:16:23.528Z,-9.01
2022-12-19T02:18:54.034Z,-9.09
2022-12-19T02:21:59.274Z,-9.06
2022-12-19T02:24:30.302Z,-9.08
2022-12-19T02:27:18.485Z,-9.04
2022-12-19T02:30:09.181Z,-9.05
2022-12-19T02:32:58.697Z,-8.84
2022-12-19T02:35:40.237Z,-8.75
2022-12-19T02:38:22.848Z,-8.73
2022-12-19T02:41:02.143Z,-8.80
2022-12-19T02:43:32.876Z,-8.71
2022-12-19T02:46:02.990Z,-8.87
2022-12-19T02:48:31.664Z,-9.03
2022-12-19T02:51:00.491Z,-8.99
2022-12-19T02:53:27.937Z,-9.08
2022-12-19T02:56:11.098Z,-9.22
2022-12-19T02:58:42.843Z,-9.18
2022-12-19T03:01:36.529Z,-9.03
2022-12-19T03:04:14.979Z,-9.26
2022-12-19T03:06:49.676Z,-8.99
2022-12-19T03:09:30.203Z,-9.18
2022-12-19T03:12:06.859Z,-9.10
2022-12-19T03:14:35.952Z,-9.02
2022-12-19T03:17:08.300Z,-9.17
2022-12-19T03:19:39.021Z,-9.06
2022-12-19T03:22:07.452Z,-9.04
2022-12-19T03:24:34.781Z,-9.06
2022-12-19T03:27:08.667Z,-9.08
2022-12-19T03:29:38.861Z,-9.24
2022-12-19T03:32:14.201Z,-9.16
2022-12-19T03:34:46.414Z,-9.27
2022-12-19T03:37:18.314Z,-9.28
2022-12-19T03:39:49.621Z,-9.29
2022-12-19T03:42:37.436Z,-9.27
2022-12-19T03:45:06.972Z,-9.27
2022-12-19T03:47:39.715Z,-9.30
2022-12-19T03:50:08.409Z,-9.18
2022-12-19T03:52:56.527Z,-9.22
2022-12-19T03:55:54.956Z,-9.32
2022-12-19T03:58:34.440Z,-9.38
2022-12-19T04:01:04.938Z,-9.38
2022-12-19T04:03:33.220Z,-9.39
2022-12-19T04:06:02.278Z,-9.42
2022-12-19T04:08:31.338Z,-9.34
2022-12-19T04:11:05.044Z,-9.40
2022-12-19T04:13:38.193Z,-9.40
2022-12-19T04:16:27.646Z,-9.38
2022-12-19T04:19:35.596Z,-9.35
2022-12-19T04:22:11.880Z,-9.41
2022-12-19T04:24:42.841Z,-9.35
2022-12-19T04:27:12.672Z,-9.39
2022-12-19T04:29:41.703Z,-9.25
2022-12-19T04:32:11.282Z,-9.30
2022-12-19T04:34:42.717Z,-9.32
2022-12-19T04:37:11.337Z,-9.32
2022-12-19T04:39:38.905Z,-9.32
2022-12-19T04:42:06.296Z,-9.32
2022-12-19T04:44:33.896Z,-9.43
2022-12-19T04:47:01.170Z,-9.40
2022-12-19T04:49:28.806Z,-9.34
2022-12-19T04:51:56.128Z,-9.33
2022-12-19T04:54:23.686Z,-9.18
2022-12-19T04:56:52.386Z,-9.18
2022-12-19T04:59:19.970Z,-9.25
2022-12-19T05:01:47.227Z,-9.25
2022-12-19T05:04:14.764Z,-9.23
2022-12-19T05:06:42.172Z,-9.24
2022-12-19T05:09:11.439Z,-9.29
2022-12-19T05:11:39.193Z,-9.45
2022-12-19T05:14:06.709Z,-9.45
2022-12-19T05:16:33.991Z,-9.38
2022-12-19T05:19:01.781Z,-9.15
2022-12-19T05:21:29.065Z,-9.42
2022-12-19T05:23:56.728Z,-9.27
2022-12-19T05:26:24.319Z,-9.30
2022-12-19T05:28:52.016Z,-9.32
2022-12-19T05:31:21.402Z,-9.27
2022-12-19T05:33:49.710Z,-9.33
2022-12-19T05:36:18.390Z,-9.36
2022-12-19T05:38:46.010Z,-9.25
2022-12-19T05:41:19.347Z,-9.21
2022-12-19T05:43:51.436Z,-9.20
2022-12-19T05:46:19.141Z,-9.16
2022-12-19T05:48:47.347Z,-9.10
2022-12-19T05:51:15.073Z,-9.26
2022-12-19T05:53:43.498Z,-9.22
2022-12-19T05:56:16.228Z,-9.02
2022-12-19T05:58:45.096Z,-9.23
2022-12-19T06:01:21.498Z,-9.22
2022-12-19T06:03:49.907Z,-9.30
2022-12-19T06:06:20.146Z,-9.29
2022-12-19T06:08:48.149Z,-9.25
2022-12-19T06:11:15.540Z,-9.25
2022-12-19T06:13:43.022Z,-9.27
2022-12-19T06:16:15.346Z,-9.13
2022-12-19T06:18:45.492Z,-9.19
2022-12-19T06:21:31.191Z,-9.29
2022-12-19T06:23:59.126Z,-9.18
2022-12-19T06:26:26.537Z,-9.36
2022-12-19T06:28:55.413Z,-9.24
2022-12-19T06:31:24.719Z,-9.13
2022-12-19T06:33:53.019Z,-9.17
2022-12-19T06:36:23.375Z,-9.21
2022-12-19T06:38:51.947Z,-9.10
2022-12-19T06:41:37.634Z,-9.05
2022-12-19T06:44:07.591Z,-8.99
2022-12-19T06:46:35.827Z,-9.15
2022-12-19T06:49:03.925Z,-9.05
2022-12-19T06:51:31.423Z,-8.98
2022-12-19T06:53:59.274Z,-9.15
2022-12-19T06:56:26.990Z,-9.04
2022-12-19T06:58:54.565Z,-9.21
2022-12-19T07:01:40.081Z,-9.07
2022-12-19T07:04:11.648Z,-9.29
2022-12-19T07:06:38.896Z,-9.13
2022-12-19T07:09:06.651Z,-9.10
2022-12-19T07:11:33.868Z,-8.95
2022-12-19T07:14:01.419Z,-8.95
2022-12-19T07:16:28.779Z,-8.90
2022-12-19T07:18:56.433Z,-9.05
2022-12-19T07:21:23.843Z,-9.00
2022-12-19T07:23:51.565Z,-8.91
2022-12-19T07:26:19.110Z,-8.98
2022-12-19T07:28:46.771Z,-8.80
2022-12-19T07:31:14.195Z,-8.81
2022-12-19T07:33:41.706Z,-8.81
2022-12-19T07:36:09.016Z,-8.76
2022-12-19T07:38:36.812Z,-8.69
2022-12-19T07:41:04.069Z,-8.80
2022-12-19T07:43:31.663Z,-8.66
2022-12-19T07:45:59.013Z,-8.72
2022-12-19T07:48:28.877Z,-8.88
2022-12-19T07:50:56.117Z,-8.63
2022-12-19T07:53:24.159Z,-8.65
2022-12-19T07:55:52.085Z,-8.53
2022-12-19T07:58:19.909Z,-8.39
2022-12-19T08:00:54.371Z,-8.51
2022-12-19T08:03:22.134Z,-8.36
2022-12-19T08:05:49.547Z,-8.43
2022-12-19T08:08:17.498Z,-8.30
2022-12-19T08:10:44.925Z,-8.38
2022-12-19T08:13:12.577Z,-8.29
2022-12-19T08:15:39.859Z,-8.31
2022-12-19T08:18:07.449Z,-8.15
2022-12-19T08:20:34.731Z,-8.09
2022-12-19T08:23:02.395Z,-8.06
2022-12-19T08:25:29.991Z,-8.08
2022-12-19T08:27:57.535Z,-7.96
2022-12-19T08:30:24.987Z,-7.79
2022-12-19T08:32:52.973Z,-7.73
2022-12-19T08:35:20.244Z,-7.91
2022-12-19T08:37:47.856Z,-7.57
2022-12-19T08:40:15.107Z,-7.64
2022-12-19T08:42:42.791Z,-7.46
2022-12-19T08:45:10.180Z,-7.56
2022-12-19T08:47:37.778Z,-7.19
2022-12-19T08:50:05.589Z,-7.58
2022-12-19T08:52:33.093Z,-7.26
2022-12-19T08:55:00.830Z,-6.97
2022-12-19T08:57:27.962Z,-6.95
2022-12-19T08:59:55.677Z,-7.05
2022-12-19T09:02:24.541Z,-7.09
2022-12-19T09:05:57.212Z,-6.57
2022-12-19T09:07:40.919Z,-6.83
2022-12-19T09:10:08.812Z,-6.98
2022-12-19T09:12:36.145Z,-6.72
2022-12-19T09:15:04.125Z,-6.65
2022-12-19T09:17:31.439Z,-6.50
2022-12-19T09:19:59.339Z,-6.20
2022-12-19T09:22:27.788Z,-5.98
2022-12-19T09:24:57.222Z,-5.82
2022-12-19T09:27:24.658Z,-5.75
2022-12-19T09:29:52.458Z,-5.75
2022-12-19T09:32:19.735Z,-6.00
2022-12-19T09:34:47.311Z,-6.17
2022-12-19T09:37:17.666Z,-6.08
2022-12-19T09:39:47.827Z,-6.52
2022-12-19T09:42:47.313Z,-5.99
2022-12-19T09:45:40.476Z,-6.03
2022-12-19T09:48:22.791Z,-5.64
2022-12-19T09:51:12.593Z,-6.35
2022-12-19T09:54:02.393Z,-6.29
2022-12-19T09:56:45.340Z,-5.76
2022-12-19T09:59:49.608Z,-5.81
2022-12-19T10:02:44.404Z,-5.52
2022-12-19T10:05:44.218Z,-5.63
2022-12-19T10:08:19.996Z,-5.50
2022-12-19T10:12:35.667Z,-5.52
2022-12-19T10:14:09.058Z,-5.58
2022-12-19T10:16:52.028Z,-5.79
2022-12-19T10:19:32.414Z,-5.16
2022-12-19T10:22:32.312Z,-5.63
2022-12-19T10:25:28.191Z,-5.36
2022-12-19T10:28:03.065Z,-5.57
2022-12-19T10:30:37.211Z,-5.72
2022-12-19T10:33:19.984Z,-5.60
2022-12-19T10:35:55.384Z,-5.42
2022-12-19T10:38:39.460Z,-5.80
2022-12-19T10:41:22.072Z,-5.07
2022-12-19T10:44:05.988Z,-5.23
2022-12-19T10:46:46.354Z,-4.73
2022-12-19T10:49:18.985Z,-4.68
2022-12-19T10:52:08.096Z,-4.99
2022-12-19T10:54:41.868Z,-4.87
2022-12-19T10:57:24.705Z,-4.99
2022-12-19T11:00:16.841Z,-5.00
2022-12-19T11:02:46.330Z,-4.83
2022-12-19T11:05:30.199Z,-5.31
2022-12-19T11:08:07.058Z,-5.14
2022-12-19T11:12:29.981Z,-4.96
2022-12-19T11:16:35.632Z,-5.31
2022-12-19T11:18:13.492Z,-4.85
2022-12-19T11:29:30.747Z,-5.05
2022-12-19T11:29:33.290Z,-5.24
2022-12-19T11:29:55.165Z,-5.20
2022-12-19T11:30:25.885Z,-5.00
2022-12-19T11:34:13.791Z,-5.22
2022-12-19T11:37:00.632Z,-5.04
2022-12-19T11:39:42.002Z,-4.99
2022-12-19T11:42:34.283Z,-4.91
2022-12-19T11:45:17.884Z,-4.70
2022-12-19T11:48:20.274Z,-4.84
2022-12-19T11:51:11.688Z,-4.85
2022-12-19T11:53:52.521Z,-5.05
2022-12-19T11:56:24.844Z,-4.99
2022-12-19T11:58:56.863Z,-4.89
2022-12-19T12:01:46.584Z,-4.81
2022-12-19T12:04:51.464Z,-5.03
2022-12-19T12:07:56.995Z,-4.66
2022-12-19T12:14:10.384Z,-4.75
2022-12-19T12:23:05.743Z,-4.65
2022-12-19T12:28:42.827Z,-4.82
2022-12-19T12:31:22.988Z,-4.73
2022-12-19T12:31:40.925Z,-4.68
2022-12-19T12:31:51.386Z,-4.76
2022-12-19T12:31:57.583Z,-4.82
2022-12-19T12:35:30.229Z,-4.68
2022-12-19T12:38:13.785Z,-4.70
2022-12-19T12:40:23.755Z,-4.75
2022-12-19T12:43:21.074Z,-4.61
2022-12-19T12:45:48.763Z,-4.40
2022-12-19T12:48:19.148Z,-4.69
2022-12-19T12:50:54.837Z,-4.30
2022-12-19T12:53:32.884Z,-4.42
2022-12-19T12:56:04.898Z,-4.49
2022-12-19T12:58:48.640Z,-4.60
2022-12-19T13:01:29.020Z,-4.42
2022-12-19T13:04:03.690Z,-4.54
2022-12-19T13:07:02.217Z,-4.55
2022-12-19T13:09:32.040Z,-4.60
2022-12-19T13:12:33.303Z,-4.38
2022-12-19T13:15:39.741Z,-4.41
2022-12-19T13:18:39.995Z,-4.10
2022-12-19T13:21:09.231Z,-4.22
2022-12-19T13:23:44.084Z,-4.24
2022-12-19T13:26:40.528Z,-4.22
2022-12-19T13:29:34.723Z,-4.08
2022-12-19T13:32:14.002Z,-4.12
2022-12-19T13:34:58.634Z,-3.94
2022-12-19T13:40:00.763Z,-3.95
2022-12-19T13:40:33.482Z,-3.96
2022-12-19T13:43:25.642Z,-4.05
2022-12-19T13:46:03.764Z,-3.61
2022-12-19T13:48:44.802Z,-3.90
2022-12-19T13:51:13.892Z,-4.08
2022-12-19T13:53:43.652Z,-3.95
2022-12-19T13:56:20.066Z,-3.82
2022-12-19T13:59:00.427Z,-3.68
2022-12-19T14:01:33.535Z,-4.02
2022-12-19T14:04:11.032Z,-3.99
2022-12-19T14:06:44.278Z,-4.04
2022-12-19T14:11:28.094Z,-4.04
2022-12-19T14:13:51.052Z,-3.85
2022-12-19T14:15:39.650Z,-3.75
2022-12-19T14:18:45.336Z,-3.78
2022-12-19T14:22:04.563Z,-3.52
2022-12-19T14:24:10.808Z,-3.50
2022-12-19T14:28:19.305Z,-3.77
2022-12-19T14:30:26.539Z,-3.73
2022-12-19T14:33:40.419Z,-3.85
2022-12-19T14:36:11.255Z,-3.75
2022-12-19T14:39:25.535Z,-3.55
2022-12-19T14:41:08.397Z,-3.66
2022-12-19T14:44:00.526Z,-3.72
2022-12-19T14:52:36.054Z,-3.51
2022-12-19T14:54:01.246Z,-3.77
2022-12-19T14:54:42.093Z,-3.56
2022-12-19T14:56:19.577Z,-3.74
2022-12-19T14:58:54.982Z,-3.45
2022-12-19T15:01:24.749Z,-3.73
2022-12-19T15:04:51.085Z,-3.55
2022-12-19T15:07:07.807Z,-3.42
2022-12-19T15:11:05.356Z,-3.57
2022-12-19T15:14:51.166Z,-3.37
2022-12-19T15:16:00.601Z,-3.51
2022-12-19T15:18:37.350Z,-3.38
2022-12-19T15:21:14.184Z,-3.45
2022-12-19T15:23:44.398Z,-3.56
2022-12-19T15:26:15.727Z,-3.49
2022-12-19T15:28:48.059Z,-3.36
2022-12-19T15:31:24.498Z,-3.50
2022-12-19T15:34:33.599Z,-3.63
2022-12-19T15:36:39.732Z,-3.47
2022-12-19T15:39:06.972Z,-3.43
2022-12-19T15:41:34.818Z,-3.42
2022-12-19T15:44:09.888Z,-3.17
2022-12-19T15:46:41.325Z,-3.42
2022-12-19T15:49:16.318Z,-3.58
2022-12-19T15:51:44.174Z,-3.38
2022-12-19T15:56:59.170Z,-3.55
2022-12-19T15:59:37.739Z,-3.40
2022-12-19T16:02:19.492Z,-3.49
2022-12-19T16:04:48.333Z,-3.13
2022-12-19T16:07:23.893Z,-2.98
2022-12-19T16:09:52.336Z,-3.24
2022-12-19T16:12:24.905Z,-3.20
2022-12-19T16:15:00.786Z,-3.38
2022-12-19T16:17:32.024Z,-3.15
2022-12-19T16:19:59.467Z,-3.09
2022-12-19T16:22:29.233Z,-2.95
2022-12-19T16:24:57.393Z,-3.10
2022-12-19T16:27:31.097Z,-2.90
2022-12-19T16:30:19.263Z,-3.00
2022-12-19T16:32:47.669Z,-2.98
2022-12-19T16:35:34.182Z,-2.94
2022-12-19T16:38:05.728Z,-2.73
2022-12-19T16:40:33.227Z,-2.59
2022-12-19T16:43:06.315Z,-2.77
2022-12-19T16:45:34.609Z,-3.11
2022-12-19T16:48:02.193Z,-2.78
2022-12-19T16:50:31.521Z,-2.70
2022-12-19T16:52:59.159Z,-2.55
2022-12-19T16:55:26.499Z,-2.64
2022-12-19T16:57:56.300Z,-2.67
2022-12-19T17:00:24.609Z,-2.77
2022-12-19T17:02:58.873Z,-2.94
2022-12-19T17:05:29.843Z,-2.68
2022-12-19T17:07:58.002Z,-2.75
2022-12-19T17:10:33.810Z,-2.87
2022-12-19T17:13:03.348Z,-2.93
2022-12-19T17:15:35.384Z,-2.90
2022-12-19T17:18:10.853Z,-2.55
2022-12-19T17:20:42.026Z,-2.99
2022-12-19T17:23:22.376Z,-3.26
2022-12-19T17:25:50.522Z,-3.07
2022-12-19T17:28:18.294Z,-3.08
2022-12-19T17:30:51.040Z,-3.10
2022-12-19T17:33:20.459Z,-3.05
2022-12-19T17:35:48.771Z,-2.75
2022-12-19T17:38:17.842Z,-3.02
2022-12-19T17:40:45.205Z,-3.10
2022-12-19T17:43:13.655Z,-3.00
2022-12-19T17:45:41.525Z,-3.08
2022-12-19T17:48:38.119Z,-3.05
2022-12-19T17:51:05.619Z,-2.92
2022-12-19T17:53:33.105Z,-3.16
2022-12-19T17:56:00.337Z,-3.03
2022-12-19T17:58:27.928Z,-3.11
2022-12-19T18:00:56.430Z,-2.93
2022-12-19T18:03:26.081Z,-3.09
2022-12-19T18:05:54.879Z,-2.78
2022-12-19T18:08:26.298Z,-2.51
2022-12-19T18:10:56.576Z,-3.00
2022-12-19T18:13:25.081Z,-2.76
2022-12-19T18:15:55.769Z,-2.88
2022-12-19T18:18:33.659Z,-2.77
2022-12-19T18:21:01.984Z,-2.59
2022-12-19T18:23:32.803Z,-2.78
2022-12-19T18:26:02.457Z,-2.82
2022-12-19T18:28:30.706Z,-3.03
2022-12-19T18:31:06.717Z,-3.11
2022-12-19T18:33:39.723Z,-2.98
2022-12-19T18:36:07.930Z,-2.79
2022-12-19T18:38:35.453Z,-2.98
2022-12-19T18:41:02.825Z,-2.76
2022-12-19T18:43:31.273Z,-2.56
2022-12-19T18:45:58.673Z,-2.84
2022-12-19T18:48:28.625Z,-2.92
2022-12-19T18:50:57.061Z,-2.84
2022-12-19T18:53:32.788Z,-2.81
2022-12-19T18:56:03.241Z,-2.69
2022-12-19T18:58:31.118Z,-2.81
2022-12-19T19:01:00.597Z,-2.77
2022-12-19T19:03:31.976Z,-2.90
2022-12-19T19:05:59.745Z,-2.94
2022-12-19T19:08:30.562Z,-2.91
2022-12-19T19:11:23.557Z,-3.00
2022-12-19T19:13:52.450Z,-2.83
2022-12-19T19:16:27.449Z,-2.83
2022-12-19T19:18:57.362Z,-2.81
2022-12-19T19:21:28.795Z,-2.91
2022-12-19T19:24:15.335Z,-2.89
2022-12-19T19:26:42.942Z,-3.00
2022-12-19T19:29:10.765Z,-2.76
2022-12-19T19:31:41.017Z,-2.65
2022-12-19T19:34:14.574Z,-2.83
2022-12-19T19:36:47.243Z,-2.78
2022-12-19T19:39:15.426Z,-2.73
2022-12-19T19:41:42.650Z,-2.63
2022-12-19T19:44:10.258Z,-2.41
2022-12-19T19:46:37.656Z,-2.51
2022-12-19T19:49:05.273Z,-2.66
2022-12-19T19:51:32.541Z,-2.65
2022-12-19T19:54:00.129Z,-2.60
2022-12-19T19:56:27.505Z,-2.30
2022-12-19T19:58:55.386Z,-2.24
2022-12-19T20:01:22.840Z,-2.45
2022-12-19T20:03:50.608Z,-2.67
2022-12-19T20:06:19.281Z,-2.58
2022-12-19T20:08:46.993Z,-2.60
2022-12-19T20:11:14.374Z,-2.52
2022-12-19T20:13:41.962Z,-2.43
2022-12-19T20:16:15.922Z,-2.53
2022-12-19T20:18:51.201Z,-2.51
2022-12-19T20:21:20.045Z,-2.44
2022-12-19T20:23:48.166Z,-2.16
2022-12-19T20:26:16.765Z,-2.14
2022-12-19T20:28:49.519Z,-2.12
2022-12-19T20:31:23.164Z,-2.34
2022-12-19T20:33:53.238Z,-2.04
2022-12-19T20:36:21.800Z,-2.32
2022-12-19T20:38:49.509Z,-2.25
2022-12-19T20:41:17.963Z,-2.45
2022-12-19T20:43:45.814Z,-2.19
2022-12-19T20:46:16.551Z,-2.31
2022-12-19T20:48:45.253Z,-2.02
2022-12-19T20:51:14.223Z,-1.92
2022-12-19T20:53:42.956Z,-2.11
2022-12-19T20:56:14.702Z,-1.91
2022-12-19T20:58:42.499Z,-2.02
2022-12-19T21:01:13.876Z,-2.09
2022-12-19T21:03:42.660Z,-1.84
2022-12-19T21:06:12.271Z,-1.80
2022-12-19T21:08:40.573Z,-1.76
2022-12-19T21:11:08.972Z,-1.66
2022-12-19T21:13:37.355Z,-1.45
2022-12-19T21:16:10.025Z,-1.43
2022-12-19T21:18:40.111Z,-1.44
2022-12-19T21:21:09.464Z,-1.48
2022-12-19T21:23:37.104Z,-1.66
2022-12-19T21:26:04.850Z,-1.42
2022-12-19T21:28:33.361Z,-1.49
2022-12-19T21:31:07.142Z,-1.58
2022-12-19T21:33:34.917Z,-1.60
2022-12-19T21:36:07.453Z,-1.50
2022-12-19T21:38:35.349Z,-1.28
2022-12-19T21:41:04.845Z,-1.43
2022-12-19T21:43:33.692Z,-1.51
2022-12-19T21:46:06.146Z,-1.23
2022-12-19T21:48:42.343Z,-1.40
2022-12-19T21:51:11.287Z,-1.37
2022-12-19T21:53:39.601Z,-1.01
2022-12-19T21:56:28.749Z,-1.30
2022-12-19T21:58:58.890Z,-1.24
2022-12-19T22:01:26.812Z,-1.28
2022-12-19T22:04:10.306Z,-1.05
2022-12-19T22:06:39.092Z,-1.14
2022-12-19T22:09:12.064Z,-0.94
2022-12-19T22:11:39.428Z,-1.15
2022-12-19T22:14:07.864Z,-1.19
2022-12-19T22:16:35.480Z,-0.92
2022-12-19T22:19:04.014Z,-1.06
2022-12-19T22:21:31.978Z,-1.00
2022-12-19T22:24:01.522Z,-0.82
2022-12-19T22:26:30.186Z,-0.63
2022-12-19T22:28:58.601Z,-0.63
2022-12-19T22:31:31.314Z,-0.63
2022-12-19T22:34:10.859Z,-0.64
2022-12-19T22:36:39.561Z,-0.84
2022-12-19T22:39:10.179Z,-0.63
2022-12-19T22:41:38.897Z,-0.71
2022-12-19T22:44:07.387Z,-0.68
2022-12-19T22:46:36.908Z,-0.49
2022-12-19T22:49:06.998Z,-0.28
2022-12-19T22:51:35.879Z,-0.23
2022-12-19T22:54:04.624Z,-0.17
2022-12-19T22:56:34.026Z,-0.08
2022-12-19T22:59:06.899Z,0.04
2022-12-19T23:01:37.734Z,-0.26
2022-12-19T23:04:07.797Z,-0.11
2022-12-19T23:06:37.492Z,0.13
2022-12-19T23:09:07.838Z,0.16
2022-12-19T23:11:40.623Z,0.06
2022-12-19T23:14:11.606Z,0.02
2022-12-19T23:16:39.007Z,0.12
2022-12-19T23:19:06.694Z,-0.06
2022-12-19T23:21:34.047Z,0.14
2022-12-19T23:24:01.644Z,0.21
2022-12-19T23:26:34.901Z,0.18
2022-12-19T23:29:06.040Z,0.16
2022-12-19T23:31:33.689Z,0.30
2022-12-19T23:34:02.254Z,0.07
2022-12-19T23:37:09.054Z,0.25
2022-12-19T23:39:17.283Z,0.53
2022-12-19T23:41:44.524Z,0.37
2022-12-19T23:44:12.328Z,0.42
2022-12-19T23:46:40.299Z,0.49
2022-12-19T23:49:08.064Z,0.70
2022-12-19T23:51:35.277Z,0.65
2022-12-19T23:54:02.935Z,0.67
2022-12-19T23:56:32.285Z,0.55
2022-12-19T23:59:00.581Z,0.69
